Time;durP1;ratioP1;P1;durP2;ratioP2;P2;SDS_P1;SDS_P2;PMS_P1;PMS_P2;Temp;Humidity;BMP_temperature;BMP_pressure;BME280_temperature;BME280_humidity;BME280_pressure;Samples;Min_cycle;Max_cycle;Signal;HPM_P1;HPM_P2
2022/05/21 00:00:58;;;;;;;1.80;1.30;;;;;;;;;;4178724;34;20210;-60
2022/05/21 00:32:46;;;;;;;2.08;1.50;;;;;;;;;;4869555;28;20898;-67
2022/05/21 00:35:12;;;;;;;1.58;1.40;;;;;;;;;;4173563;34;20202;-68
2022/05/21 00:37:38;;;;;;;2.22;1.50;;;;;;;;;;4178110;34;20507;-67
2022/05/21 00:40:05;;;;;;;1.65;1.55;;;;;;;;;;4165287;34;20190;-67
2022/05/21 00:42:31;;;;;;;1.75;1.65;;;;;;;;;;4178240;34;20114;-77
2022/05/21 00:44:57;;;;;;;1.95;1.75;;;;;;;;;;4178197;34;20440;-78
2022/05/21 00:47:23;;;;;;;2.90;1.40;;;;;;;;;;4154482;34;20545;-68
2022/05/21 00:49:49;;;;;;;2.15;1.37;;;;;;;;;;4178112;34;20207;-68
2022/05/21 00:52:19;;;;;;;1.52;1.42;;;;;;;;;;4178289;34;20110;-68
2022/05/21 00:54:50;;;;;;;2.58;1.70;;;;;;;;;;4165215;34;20110;-68
2022/05/21 00:57:17;;;;;;;2.22;1.65;;;;;;;;;;4154654;34;20107;-68
2022/05/21 00:59:53;;;;;;;1.50;1.40;;;;;;;;;;4165090;34;20201;-68
2022/05/21 01:02:33;;;;;;;1.48;1.37;;;;;;;;;;4166029;34;20189;-68
2022/05/21 01:05:00;;;;;;;3.17;1.48;;;;;;;;;;4165135;34;20106;-68
2022/05/21 01:07:26;;;;;;;3.97;1.52;;;;;;;;;;4165264;34;20111;-68
2022/05/21 01:09:55;;;;;;;3.30;1.50;;;;;;;;;;4165127;34;20195;-68
2022/05/21 01:12:30;;;;;;;2.42;1.48;;;;;;;;;;4165474;34;20181;-68
2022/05/21 01:14:59;;;;;;;1.10;1.10;;;;;;;;;;4164932;34;20137;-69
2022/05/21 01:17:25;;;;;;;3.22;1.55;;;;;;;;;;4178120;34;20110;-69
2022/05/21 01:20:00;;;;;;;6.03;1.70;;;;;;;;;;4164930;34;20102;-69
2022/05/21 01:22:28;;;;;;;1.65;1.52;;;;;;;;;;4165088;34;20138;-68
2022/05/21 01:24:54;;;;;;;1.80;1.50;;;;;;;;;;4177556;34;20128;-68
2022/05/21 01:27:21;;;;;;;3.80;1.70;;;;;;;;;;4177805;34;20209;-78
2022/05/21 01:29:50;;;;;;;1.42;1.33;;;;;;;;;;4153656;34;20122;-77
2022/05/21 01:32:17;;;;;;;4.53;1.62;;;;;;;;;;4177687;34;20111;-77
2022/05/21 01:34:44;;;;;;;2.95;1.55;;;;;;;;;;4164740;34;20118;-78
2022/05/21 01:37:10;;;;;;;2.87;1.87;;;;;;;;;;4165129;34;20278;-78
2022/05/21 01:39:37;;;;;;;1.60;1.50;;;;;;;;;;4153583;34;20122;-78
2022/05/21 01:42:03;;;;;;;2.37;1.60;;;;;;;;;;4177702;34;20206;-78
2022/05/21 01:44:38;;;;;;;3.80;1.77;;;;;;;;;;4177541;34;20102;-76
2022/05/21 01:47:13;;;;;;;2.08;1.60;;;;;;;;;;4154557;34;20122;-79
2022/05/21 01:49:40;;;;;;;2.45;1.67;;;;;;;;;;4164932;34;20122;-79
2022/05/21 01:52:07;;;;;;;1.60;1.50;;;;;;;;;;4153571;34;20122;-77
2022/05/21 01:54:34;;;;;;;2.92;1.40;;;;;;;;;;4153583;34;20122;-77
2022/05/21 01:57:00;;;;;;;2.28;1.70;;;;;;;;;;4142388;34;20186;-77
2022/05/21 01:59:26;;;;;;;1.60;1.50;;;;;;;;;;4177925;34;20104;-77
2022/05/21 02:01:52;;;;;;;4.32;1.73;;;;;;;;;;4177926;34;20207;-76
2022/05/21 02:04:19;;;;;;;1.98;1.60;;;;;;;;;;4165247;34;20508;-77
2022/05/21 02:06:46;;;;;;;1.80;1.70;;;;;;;;;;4164756;34;20095;-76
2022/05/21 02:09:12;;;;;;;2.40;1.65;;;;;;;;;;4164467;34;20114;-78
2022/05/21 02:11:38;;;;;;;2.05;1.95;;;;;;;;;;4177537;34;20133;-77
2022/05/21 02:14:05;;;;;;;2.53;1.75;;;;;;;;;;4164104;34;20145;-77
2022/05/21 02:16:34;;;;;;;1.70;1.60;;;;;;;;;;4164601;34;20110;-77
2022/05/21 02:19:02;;;;;;;4.15;2.05;;;;;;;;;;4165044;34;20613;-76
2022/05/21 02:21:28;;;;;;;2.72;1.90;;;;;;;;;;4164626;34;20107;-77
2022/05/21 02:23:55;;;;;;;2.08;1.70;;;;;;;;;;4153509;34;20534;-77
2022/05/21 02:26:21;;;;;;;2.08;1.90;;;;;;;;;;4153311;34;20545;-78
2022/05/21 02:28:47;;;;;;;2.25;1.80;;;;;;;;;;4164708;34;20125;-77
2022/05/21 02:31:13;;;;;;;3.10;1.55;;;;;;;;;;4177125;34;20597;-77
2022/05/21 02:33:43;;;;;;;4.40;2.15;;;;;;;;;;4177141;34;20130;-77
2022/05/21 02:36:10;;;;;;;1.80;1.70;;;;;;;;;;4164473;34;20534;-78
2022/05/21 02:41:21;;;;;;;3.60;2.00;;;;;;;;;;4164676;34;20190;-77
2022/05/21 02:43:47;;;;;;;3.83;1.90;;;;;;;;;;4177187;34;20098;-79
2022/05/21 02:46:14;;;;;;;2.28;1.77;;;;;;;;;;4153351;34;20128;-79
2022/05/21 02:48:41;;;;;;;2.78;2.10;;;;;;;;;;4153337;34;20126;-79
2022/05/21 02:51:09;;;;;;;4.55;2.15;;;;;;;;;;4153170;34;20111;-79
2022/05/21 02:53:35;;;;;;;2.30;2.10;;;;;;;;;;4141991;34;20534;-81
2022/05/21 02:56:06;;;;;;;3.25;1.92;;;;;;;;;;4153051;34;20121;-80
2022/05/21 02:58:33;;;;;;;4.18;2.45;;;;;;;;;;4153131;34;20106;-81
2022/05/21 03:00:59;;;;;;;5.30;2.30;;;;;;;;;;4176951;34;20510;-80
2022/05/21 03:03:25;;;;;;;2.92;2.50;;;;;;;;;;4164355;34;20196;-80
2022/05/21 03:05:51;;;;;;;2.30;2.10;;;;;;;;;;4164554;34;20116;-80
2022/05/21 03:11:02;;;;;;;2.53;2.20;;;;;;;;;;4166036;34;20222;-81
2022/05/21 03:13:29;;;;;;;3.33;2.12;;;;;;;;;;4153126;34;20103;-81
2022/05/21 03:15:56;;;;;;;3.00;2.40;;;;;;;;;;4177336;34;20102;-82
2022/05/21 03:18:22;;;;;;;3.35;2.00;;;;;;;;;;4164241;34;20150;-79
2022/05/21 03:20:48;;;;;;;3.03;2.00;;;;;;;;;;4164126;34;20122;-78
2022/05/21 03:23:15;;;;;;;2.85;2.30;;;;;;;;;;4164140;34;20539;-78
2022/05/21 03:25:41;;;;;;;2.33;2.12;;;;;;;;;;4153226;34;20113;-79
2022/05/21 03:28:07;;;;;;;2.35;1.90;;;;;;;;;;4152650;34;20486;-79
2022/05/21 03:30:34;;;;;;;2.55;2.33;;;;;;;;;;4152670;34;20602;-79
2022/05/21 03:33:00;;;;;;;4.05;2.50;;;;;;;;;;4152655;34;20182;-78
2022/05/21 03:35:27;;;;;;;2.85;2.30;;;;;;;;;;4153400;34;20097;-78
2022/05/21 03:37:54;;;;;;;3.55;1.95;;;;;;;;;;4163798;34;20767;-79
2022/05/21 03:40:24;;;;;;;2.30;2.00;;;;;;;;;;4164127;34;20129;-78
2022/05/21 03:42:51;;;;;;;2.80;2.35;;;;;;;;;;4163801;34;20222;-78
2022/05/21 03:45:17;;;;;;;3.70;2.58;;;;;;;;;;4163998;34;20138;-79
2022/05/21 03:47:43;;;;;;;3.28;2.22;;;;;;;;;;4176539;34;20094;-79
2022/05/21 03:50:12;;;;;;;2.70;2.42;;;;;;;;;;4176529;34;20730;-79
2022/05/21 03:52:37;;;;;;;3.05;2.35;;;;;;;;;;4152709;34;20113;-80
2022/05/21 03:55:04;;;;;;;2.47;2.28;;;;;;;;;;4163858;34;20110;-81
2022/05/21 03:57:31;;;;;;;3.75;2.22;;;;;;;;;;4176745;34;20768;-81
2022/05/21 03:59:57;;;;;;;3.15;2.05;;;;;;;;;;4141385;34;20130;-81
2022/05/21 04:02:24;;;;;;;2.40;2.10;;;;;;;;;;4176553;34;20119;-82
2022/05/21 04:04:50;;;;;;;4.18;2.47;;;;;;;;;;4152491;34;20126;-79
2022/05/21 04:07:16;;;;;;;2.85;2.55;;;;;;;;;;4177308;34;20504;-80
2022/05/21 04:09:42;;;;;;;2.50;2.30;;;;;;;;;;4163502;34;20531;-80
2022/05/21 04:12:09;;;;;;;3.28;2.72;;;;;;;;;;4176354;34;20451;-80
2022/05/21 04:14:35;;;;;;;3.45;2.03;;;;;;;;;;4163821;34;20121;-79
2022/05/21 04:17:03;;;;;;;2.20;2.00;;;;;;;;;;4177055;34;20116;-79
2022/05/21 04:19:30;;;;;;;3.35;2.17;;;;;;;;;;4163816;34;20450;-80
2022/05/21 04:21:56;;;;;;;3.55;2.00;;;;;;;;;;4152397;34;20099;-82
2022/05/21 04:24:22;;;;;;;4.50;2.17;;;;;;;;;;4163260;34;20091;-79
2022/05/21 04:26:48;;;;;;;7.97;2.50;;;;;;;;;;4163345;34;20191;-80
2022/05/21 04:29:16;;;;;;;4.50;2.10;;;;;;;;;;4152484;34;20117;-71
2022/05/21 04:31:42;;;;;;;3.30;2.65;;;;;;;;;;4163439;34;20511;-71
2022/05/21 04:34:09;;;;;;;6.60;3.08;;;;;;;;;;4175947;34;20607;-70
2022/05/21 04:36:35;;;;;;;6.43;2.47;;;;;;;;;;4175788;34;20098;-72
2022/05/21 04:39:01;;;;;;;3.37;2.35;;;;;;;;;;4153796;34;20142;-71
2022/05/21 04:41:27;;;;;;;3.55;2.33;;;;;;;;;;4165350;34;20475;-71
2022/05/21 04:43:54;;;;;;;4.03;2.40;;;;;;;;;;4178271;34;20121;-76
2022/05/21 04:46:21;;;;;;;5.18;2.42;;;;;;;;;;4154049;34;20545;-76
2022/05/21 04:48:47;;;;;;;3.40;2.40;;;;;;;;;;4178364;34;20094;-72
2022/05/21 04:51:14;;;;;;;9.20;2.40;;;;;;;;;;4165006;34;20644;-71
2022/05/21 04:53:40;;;;;;;8.93;2.85;;;;;;;;;;4178311;34;20209;-69
2022/05/21 04:56:07;;;;;;;6.30;2.60;;;;;;;;;;4154115;34;20118;-66
2022/05/21 04:58:33;;;;;;;4.15;2.30;;;;;;;;;;4178008;34;20126;-63
2022/05/21 05:01:00;;;;;;;4.55;2.33;;;;;;;;;;4177890;34;20547;-67
2022/05/21 05:03:27;;;;;;;4.40;2.58;;;;;;;;;;4177926;34;20144;-64
2022/05/21 05:05:52;;;;;;;2.55;2.33;;;;;;;;;;4177866;34;20614;-66
2022/05/21 05:08:20;;;;;;;7.70;2.60;;;;;;;;;;4178267;34;20128;-65
2022/05/21 05:10:47;;;;;;;4.95;2.45;;;;;;;;;;4177781;34;20110;-64
2022/05/21 05:13:13;;;;;;;2.70;2.30;;;;;;;;;;4177688;34;20193;-65
2022/05/21 05:15:40;;;;;;;2.85;2.50;;;;;;;;;;4177874;34;20544;-67
2022/05/21 05:18:09;;;;;;;3.10;2.33;;;;;;;;;;4177837;34;20118;-65
2022/05/21 05:20:36;;;;;;;2.37;2.17;;;;;;;;;;4178057;34;20185;-64
2022/05/21 05:23:02;;;;;;;3.67;2.60;;;;;;;;;;4177798;34;20584;-64
2022/05/21 05:25:28;;;;;;;6.97;2.62;;;;;;;;;;4164999;34;20467;-67
2022/05/21 05:27:55;;;;;;;3.37;2.80;;;;;;;;;;4165253;34;20221;-66
2022/05/21 05:30:22;;;;;;;4.18;2.28;;;;;;;;;;4177674;34;20118;-65
2022/05/21 05:32:49;;;;;;;2.78;1.95;;;;;;;;;;4177949;34;20113;-65
2022/05/21 05:35:15;;;;;;;5.85;2.90;;;;;;;;;;4177908;34;20109;-65
2022/05/21 05:37:41;;;;;;;6.15;2.60;;;;;;;;;;4177680;34;20118;-65
2022/05/21 05:40:15;;;;;;;5.18;2.50;;;;;;;;;;4177672;34;20134;-64
2022/05/21 05:42:41;;;;;;;3.30;2.28;;;;;;;;;;4177792;34;20126;-65
2022/05/21 05:45:08;;;;;;;2.92;2.62;;;;;;;;;;4177647;34;20548;-64
2022/05/21 05:47:34;;;;;;;3.47;2.25;;;;;;;;;;4177564;34;20229;-65
2022/05/21 05:50:00;;;;;;;6.82;2.30;;;;;;;;;;4176490;34;20129;-65
2022/05/21 05:52:27;;;;;;;4.70;2.53;;;;;;;;;;4177621;34;20122;-64
2022/05/21 05:54:54;;;;;;;8.43;3.35;;;;;;;;;;4177666;34;20569;-64
2022/05/21 05:57:20;;;;;;;4.50;2.37;;;;;;;;;;4177531;34;20432;-64
2022/05/21 05:59:49;;;;;;;3.17;2.50;;;;;;;;;;4164497;34;20628;-66
2022/05/21 06:05:07;;;;;;;4.62;2.65;;;;;;;;;;4177434;34;20102;-66
2022/05/21 06:07:33;;;;;;;4.03;3.10;;;;;;;;;;4177432;34;20118;-66
2022/05/21 06:10:04;;;;;;;4.10;2.47;;;;;;;;;;4177231;34;20118;-66
2022/05/21 06:12:30;;;;;;;8.90;2.95;;;;;;;;;;4177184;34;20126;-68
2022/05/21 06:14:56;;;;;;;5.62;2.70;;;;;;;;;;4177112;34;20617;-70
2022/05/21 06:17:22;;;;;;;3.15;2.72;;;;;;;;;;4177360;34;20557;-66
2022/05/21 06:19:48;;;;;;;3.78;2.40;;;;;;;;;;4177461;34;20115;-66
2022/05/21 06:22:14;;;;;;;2.97;2.58;;;;;;;;;;4177260;34;20153;-66
2022/05/21 06:24:40;;;;;;;3.75;2.60;;;;;;;;;;4177429;34;20522;-66
2022/05/21 06:27:06;;;;;;;4.57;2.53;;;;;;;;;;4177379;34;20114;-65
2022/05/21 06:29:32;;;;;;;4.32;2.35;;;;;;;;;;4176935;34;20101;-72
2022/05/21 06:31:58;;;;;;;3.45;2.70;;;;;;;;;;4153445;34;20121;-70
2022/05/21 06:34:25;;;;;;;2.62;2.42;;;;;;;;;;4176972;34;20122;-70
2022/05/21 06:36:51;;;;;;;2.58;2.37;;;;;;;;;;4177018;34;20082;-67
2022/05/21 06:39:17;;;;;;;3.08;2.67;;;;;;;;;;4164848;34;20101;-68
2022/05/21 06:41:43;;;;;;;2.95;2.53;;;;;;;;;;4163703;34;20134;-68
2022/05/21 06:44:09;;;;;;;3.28;2.42;;;;;;;;;;4150942;34;20130;-69
2022/05/21 06:46:36;;;;;;;5.93;2.50;;;;;;;;;;4174824;34;20194;-69
2022/05/21 06:49:02;;;;;;;4.70;2.30;;;;;;;;;;4162120;34;20619;-70
2022/05/21 06:51:28;;;;;;;5.35;2.50;;;;;;;;;;4174817;34;20217;-67
2022/05/21 06:53:54;;;;;;;3.03;2.40;;;;;;;;;;4174949;34;20700;-66
2022/05/21 06:56:20;;;;;;;5.55;2.30;;;;;;;;;;4175878;34;20166;-66
2022/05/21 06:58:46;;;;;;;2.92;2.40;;;;;;;;;;4176981;34;20225;-65
2022/05/21 07:01:12;;;;;;;2.90;2.20;;;;;;;;;;4176763;34;20142;-67
2022/05/21 07:03:38;;;;;;;5.80;3.75;;;;;;;;;;4163678;34;20126;-67
2022/05/21 07:08:50;;;;;;;3.22;2.37;;;;;;;;;;4176535;34;20564;-67
2022/05/21 07:11:16;;;;;;;2.10;1.90;;;;;;;;;;4176576;34;20111;-67
2022/05/21 07:13:43;;;;;;;5.40;1.98;;;;;;;;;;4176652;34;20210;-68
2022/05/21 07:16:09;;;;;;;2.10;1.90;;;;;;;;;;4176755;34;20094;-67
2022/05/21 07:18:35;;;;;;;2.53;2.00;;;;;;;;;;4176548;34;20121;-67
2022/05/21 07:21:01;;;;;;;1.90;1.70;;;;;;;;;;4176835;34;20163;-68
2022/05/21 07:23:28;;;;;;;2.62;1.90;;;;;;;;;;4163868;34;20110;-65
2022/05/21 07:25:58;;;;;;;1.75;1.65;;;;;;;;;;4176551;34;20381;-65
2022/05/21 07:28:24;;;;;;;3.72;2.10;;;;;;;;;;4176592;34;20099;-65
2022/05/21 07:30:51;;;;;;;1.80;1.70;;;;;;;;;;4163684;34;20408;-65
2022/05/21 07:33:19;;;;;;;2.10;1.90;;;;;;;;;;4176359;34;20133;-65
2022/05/21 07:35:45;;;;;;;2.80;1.85;;;;;;;;;;4175593;34;20115;-65
2022/05/21 07:38:13;;;;;;;2.58;1.70;;;;;;;;;;4162774;34;20122;-66
2022/05/21 07:40:43;;;;;;;1.80;1.70;;;;;;;;;;4150306;34;20445;-67
2022/05/21 07:43:15;;;;;;;1.70;1.60;;;;;;;;;;4139255;34;20144;-67
2022/05/21 07:45:42;;;;;;;1.90;1.52;;;;;;;;;;4150377;34;20130;-66
2022/05/21 07:48:10;;;;;;;1.67;1.58;;;;;;;;;;4162861;34;20479;-66
2022/05/21 07:50:40;;;;;;;2.17;1.98;;;;;;;;;;4162673;34;21024;-67
2022/05/21 07:53:39;;;;;;;3.17;1.80;;;;;;;;;;4139055;34;20098;-67
2022/05/21 07:56:10;;;;;;;5.90;2.20;;;;;;;;;;4120889;34;20215;-67
2022/05/21 07:58:37;;;;;;;1.65;1.50;;;;;;;;;;4150265;34;20194;-67
2022/05/21 08:01:03;;;;;;;4.22;1.67;;;;;;;;;;4162777;34;20102;-67
2022/05/21 08:03:29;;;;;;;4.15;1.70;;;;;;;;;;4153138;34;20202;-68
2022/05/21 08:05:56;;;;;;;2.03;1.70;;;;;;;;;;4152164;34;20501;-66
2022/05/21 08:08:23;;;;;;;3.42;1.62;;;;;;;;;;4163616;34;20137;-66
2022/05/21 08:10:49;;;;;;;4.60;1.60;;;;;;;;;;4175980;34;20181;-67
2022/05/21 08:13:16;;;;;;;2.87;2.28;;;;;;;;;;4177200;34;20114;-67
2022/05/21 08:15:43;;;;;;;2.15;1.77;;;;;;;;;;4178349;34;20125;-66
2022/05/21 08:18:09;;;;;;;1.50;1.40;;;;;;;;;;4178449;34;20125;-66
2022/05/21 08:20:36;;;;;;;3.83;1.62;;;;;;;;;;4178187;34;20153;-68
2022/05/21 08:28:34;;;;;;;1.35;1.27;;;;;;;;;;4178034;34;19989;-66
2022/05/21 08:31:00;;;;;;;1.73;1.50;;;;;;;;;;4178066;34;20107;-66
2022/05/21 08:33:27;;;;;;;1.35;1.25;;;;;;;;;;4177825;34;20129;-69
2022/05/21 08:35:53;;;;;;;2.15;1.45;;;;;;;;;;4165261;34;20141;-67
2022/05/21 08:38:19;;;;;;;1.42;1.33;;;;;;;;;;4165239;34;20152;-65
2022/05/21 08:41:06;;;;;;;2.67;1.40;;;;;;;;;;4177642;34;20650;-63
2022/05/21 08:44:10;;;;;;;3.37;1.30;;;;;;;;;;4178212;34;20113;-63
2022/05/21 08:46:51;;;;;;;1.58;1.23;;;;;;;;;;4165531;34;20129;-65
2022/05/21 08:49:43;;;;;;;1.50;1.30;;;;;;;;;;4165551;34;20435;-65
2022/05/21 08:52:14;;;;;;;2.92;1.40;;;;;;;;;;4156607;34;20705;-63
2022/05/21 08:54:46;;;;;;;3.50;1.33;;;;;;;;;;4178040;34;20195;-64
2022/05/21 08:57:43;;;;;;;1.52;1.33;;;;;;;;;;4177893;34;20551;-64
2022/05/21 09:00:09;;;;;;;;;;;;;;;;;;4151174;34;20126;-64
2022/05/21 09:02:36;;;;;;;1.70;1.40;;;;;;;;;;4177914;34;19993;-64
2022/05/21 09:05:07;;;;;;;1.23;1.23;;;;;;;;;;4177797;34;20129;-63
2022/05/21 09:07:51;;;;;;;1.37;1.27;;;;;;;;;;4178096;34;20095;-64
2022/05/21 09:10:54;;;;;;;1.23;1.12;;;;;;;;;;4177736;34;20176;-64
2022/05/21 09:13:44;;;;;;;1.17;1.08;;;;;;;;;;4164991;34;20106;-66
2022/05/21 09:19:03;;;;;;;7.70;1.50;;;;;;;;;;4164716;34;20138;-64
2022/05/21 09:21:32;;;;;;;1.40;1.30;;;;;;;;;;4177903;34;20190;-64
2022/05/21 09:24:00;;;;;;;1.33;1.23;;;;;;;;;;4177805;34;20109;-64
2022/05/21 09:26:30;;;;;;;1.30;1.20;;;;;;;;;;4177685;34;20207;-64
2022/05/21 09:29:16;;;;;;;1.40;1.30;;;;;;;;;;4177442;34;20535;-63
2022/05/21 09:31:42;;;;;;;1.10;1.10;;;;;;;;;;4177872;34;20193;-64
2022/05/21 09:34:26;;;;;;;1.27;1.17;;;;;;;;;;4177785;34;20109;-64
2022/05/21 09:36:52;;;;;;;1.25;1.15;;;;;;;;;;4177829;34;20106;-64
2022/05/21 09:39:39;;;;;;;2.87;1.83;;;;;;;;;;4177518;34;20105;-64
2022/05/21 09:45:27;;;;;;;3.65;1.52;;;;;;;;;;4177502;34;20122;-65
2022/05/21 09:48:05;;;;;;;1.35;1.12;;;;;;;;;;4177517;34;20523;-65
2022/05/21 09:50:40;;;;;;;1.48;1.30;;;;;;;;;;4164628;34;20533;-63
2022/05/21 09:53:25;;;;;;;1.25;1.15;;;;;;;;;;4177658;34;20522;-64
2022/05/21 09:56:20;;;;;;;1.20;1.10;;;;;;;;;;4177394;34;20286;-64
2022/05/21 09:58:48;;;;;;;1.98;1.30;;;;;;;;;;4176112;34;20110;-64
2022/05/21 10:01:17;;;;;;;1.08;1.08;;;;;;;;;;4177619;34;20122;-66
2022/05/21 10:03:50;;;;;;;1.70;1.27;;;;;;;;;;4164635;34;20177;-62
2022/05/21 10:06:20;;;;;;;2.45;1.30;;;;;;;;;;4164863;34;20105;-63
2022/05/21 10:11:53;;;;;;;2.97;1.20;;;;;;;;;;4166452;34;20115;-63
2022/05/21 10:14:25;;;;;;;2.28;1.50;;;;;;;;;;4177320;34;20201;-64
2022/05/21 10:16:55;;;;;;;3.05;1.10;;;;;;;;;;4177264;34;20126;-64
2022/05/21 10:19:35;;;;;;;1.40;1.30;;;;;;;;;;4164456;34;20503;-62
2022/05/21 10:22:24;;;;;;;1.37;1.27;;;;;;;;;;4164515;34;20118;-63
2022/05/21 10:25:08;;;;;;;3.40;1.70;;;;;;;;;;4177074;34;20130;-62
2022/05/21 10:27:58;;;;;;;1.50;1.40;;;;;;;;;;4177291;34;20549;-63
2022/05/21 10:30:26;;;;;;;1.30;1.20;;;;;;;;;;4177414;34;20201;-64
2022/05/21 10:33:19;;;;;;;7.95;1.20;;;;;;;;;;4177101;34;20604;-62
2022/05/21 10:36:03;;;;;;;1.55;1.35;;;;;;;;;;4176463;34;20125;-62
2022/05/21 10:38:40;;;;;;;1.40;1.30;;;;;;;;;;4176915;34;20478;-62
2022/05/21 10:41:22;;;;;;;1.35;1.25;;;;;;;;;;4176918;34;20121;-61
2022/05/21 10:44:00;;;;;;;2.40;1.35;;;;;;;;;;4177047;34;20103;-64
2022/05/21 10:46:40;;;;;;;3.17;1.35;;;;;;;;;;4177053;34;20114;-64
2022/05/21 10:49:54;;;;;;;2.95;1.40;;;;;;;;;;4177097;34;20125;-64
2022/05/21 10:52:31;;;;;;;2.87;1.40;;;;;;;;;;4120901;34;20694;-64
2022/05/21 10:55:17;;;;;;;3.05;1.40;;;;;;;;;;4169920;34;20138;-63
2022/05/21 10:57:52;;;;;;;2.58;1.60;;;;;;;;;;4176716;34;20125;-64
2022/05/21 11:00:25;;;;;;;3.10;1.40;;;;;;;;;;4176967;34;20446;-64
2022/05/21 11:03:20;;;;;;;1.65;1.55;;;;;;;;;;4164594;34;20118;-64
2022/05/21 11:06:04;;;;;;;2.33;1.30;;;;;;;;;;4163941;34;20212;-65
2022/05/21 11:08:37;;;;;;;2.42;1.20;;;;;;;;;;4176672;34;20198;-64
2022/05/21 11:11:25;;;;;;;1.23;1.20;;;;;;;;;;4163878;34;20098;-64
2022/05/21 11:14:00;;;;;;;1.15;1.15;;;;;;;;;;4164147;34;20118;-66
2022/05/21 11:17:01;;;;;;;1.48;1.37;;;;;;;;;;4164021;34;20155;-65
2022/05/21 11:19:41;;;;;;;2.67;1.20;;;;;;;;;;4167668;34;20137;-64
2022/05/21 11:22:11;;;;;;;2.03;1.45;;;;;;;;;;4164084;34;20456;-65
2022/05/21 11:25:03;;;;;;;1.98;1.50;;;;;;;;;;4176624;34;20110;-64
2022/05/21 11:27:36;;;;;;;1.48;1.37;;;;;;;;;;4164027;34;20125;-65
2022/05/21 11:30:16;;;;;;;2.05;1.50;;;;;;;;;;4176647;34;20122;-64
2022/05/21 11:38:35;;;;;;;1.90;1.27;;;;;;;;;;4152258;34;20441;-65
2022/05/21 11:41:27;;;;;;;1.40;1.30;;;;;;;;;;4139050;34;20102;-65
2022/05/21 11:47:08;;;;;;;2.03;1.50;;;;;;;;;;4163799;34;20132;-65
2022/05/21 11:49:47;;;;;;;1.65;1.55;;;;;;;;;;4164944;34;20116;-66
2022/05/21 11:52:31;;;;;;;3.17;1.30;;;;;;;;;;4165183;34;20130;-66
2022/05/21 11:54:57;;;;;;;2.03;1.80;;;;;;;;;;4164687;34;20134;-65
2022/05/21 11:57:33;;;;;;;2.35;1.70;;;;;;;;;;4164881;34;20212;-66
2022/05/21 12:00:00;;;;;;;3.08;1.40;;;;;;;;;;4152080;34;20202;-67
2022/05/21 12:02:29;;;;;;;2.58;1.40;;;;;;;;;;4152276;34;20126;-65
2022/05/21 12:05:05;;;;;;;1.50;1.40;;;;;;;;;;4164561;34;20126;-66
2022/05/21 12:07:49;;;;;;;1.83;1.40;;;;;;;;;;4140757;34;20186;-66
2022/05/21 12:10:28;;;;;;;1.80;1.70;;;;;;;;;;4164581;34;20091;-67
2022/05/21 12:13:00;;;;;;;5.25;1.42;;;;;;;;;;4141252;34;20093;-64
2022/05/21 12:15:43;;;;;;;1.67;1.50;;;;;;;;;;4164914;34;20122;-65
2022/05/21 12:18:35;;;;;;;2.05;1.80;;;;;;;;;;4164728;34;20432;-67
2022/05/21 12:21:02;;;;;;;1.30;1.30;;;;;;;;;;4164664;34;20101;-66
2022/05/21 12:23:31;;;;;;;2.30;1.50;;;;;;;;;;4164745;34;20106;-66
2022/05/21 12:26:00;;;;;;;3.08;1.40;;;;;;;;;;4164562;34;20090;-65
2022/05/21 12:28:46;;;;;;;1.90;1.40;;;;;;;;;;4164899;34;20585;-64
2022/05/21 12:31:13;;;;;;;;;;;;;;;;;;4152627;34;20217;-65
2022/05/21 12:33:53;;;;;;;3.72;1.92;;;;;;;;;;4155545;34;19978;-63
2022/05/21 12:36:19;;;;;;;2.53;1.80;;;;;;;;;;4165610;34;20459;-66
2022/05/21 12:38:46;;;;;;;1.67;1.45;;;;;;;;;;4178453;34;20219;-63
2022/05/21 12:41:36;;;;;;;3.05;1.65;;;;;;;;;;4178079;34;20440;-63
2022/05/21 12:44:02;;;;;;;2.53;2.15;;;;;;;;;;4178038;34;20193;-64
2022/05/21 12:46:35;;;;;;;4.32;2.17;;;;;;;;;;4178325;34;20172;-62
2022/05/21 12:49:08;;;;;;;1.52;1.42;;;;;;;;;;4177699;34;20110;-64
2022/05/21 12:51:42;;;;;;;2.25;1.73;;;;;;;;;;4174389;34;20495;-64
2022/05/21 12:54:24;;;;;;;1.77;1.67;;;;;;;;;;4169488;34;20507;-64
2022/05/21 12:56:50;;;;;;;1.80;1.35;;;;;;;;;;4169575;34;20623;-65
2022/05/21 12:59:32;;;;;;;3.28;1.40;;;;;;;;;;4156955;34;20136;-64
2022/05/21 13:02:03;;;;;;;2.10;1.90;;;;;;;;;;4157542;34;20111;-64
2022/05/21 13:04:31;;;;;;;2.85;2.05;;;;;;;;;;4169467;34;20130;-65
2022/05/21 13:07:07;;;;;;;3.30;2.00;;;;;;;;;;4169740;34;20203;-64
2022/05/21 13:09:35;;;;;;;10.27;2.30;;;;;;;;;;4157323;34;20123;-63
2022/05/21 13:12:03;;;;;;;2.05;1.77;;;;;;;;;;4156764;34;20122;-63
2022/05/21 13:14:34;;;;;;;1.73;1.62;;;;;;;;;;4169384;34;20123;-63
2022/05/21 13:17:01;;;;;;;2.25;1.65;;;;;;;;;;4156579;34;20106;-63
2022/05/21 13:19:36;;;;;;;1.50;1.40;;;;;;;;;;4169215;34;20453;-64
2022/05/21 13:22:01;;;;;;;1.98;1.67;;;;;;;;;;4158513;34;20199;-64
2022/05/21 13:24:42;;;;;;;5.60;2.08;;;;;;;;;;4168650;34;20118;-64
2022/05/21 13:27:11;;;;;;;3.92;1.70;;;;;;;;;;4171527;34;20098;-64
2022/05/21 13:29:38;;;;;;;2.78;1.90;;;;;;;;;;4169438;34;20560;-64
2022/05/21 13:32:29;;;;;;;2.95;1.83;;;;;;;;;;4169176;34;20409;-64
2022/05/21 13:35:04;;;;;;;2.75;1.80;;;;;;;;;;4167715;34;20456;-65
2022/05/21 13:37:39;;;;;;;2.28;2.03;;;;;;;;;;4170894;34;20113;-66
2022/05/21 13:40:19;;;;;;;5.12;2.20;;;;;;;;;;4169349;34;20203;-66
2022/05/21 13:42:48;;;;;;;2.30;1.87;;;;;;;;;;4158386;34;20444;-66
2022/05/21 13:45:26;;;;;;;3.87;2.20;;;;;;;;;;4156828;34;20183;-65
2022/05/21 13:47:58;;;;;;;4.00;1.98;;;;;;;;;;4157934;34;20126;-66
2022/05/21 13:50:26;;;;;;;2.10;1.60;;;;;;;;;;4168041;34;20467;-66
2022/05/21 13:52:53;;;;;;;2.10;1.90;;;;;;;;;;4150980;34;20546;-68
2022/05/21 13:55:19;;;;;;;3.85;2.00;;;;;;;;;;4163627;34;20094;-67
2022/05/21 13:57:46;;;;;;;3.60;2.25;;;;;;;;;;4163651;34;20111;-66
2022/05/21 14:00:21;;;;;;;4.53;1.85;;;;;;;;;;4151048;34;20141;-67
2022/05/21 14:02:52;;;;;;;3.05;2.08;;;;;;;;;;4163673;34;20114;-67
2022/05/21 14:05:34;;;;;;;5.50;2.05;;;;;;;;;;4163856;34;20118;-65
2022/05/21 14:08:11;;;;;;;2.20;2.00;;;;;;;;;;4150973;34;20455;-65
2022/05/21 14:10:46;;;;;;;2.50;1.77;;;;;;;;;;4149951;34;20129;-65
2022/05/21 14:13:24;;;;;;;2.40;1.80;;;;;;;;;;4163376;34;20098;-65
2022/05/21 14:15:50;;;;;;;2.45;2.08;;;;;;;;;;4163439;34;20142;-67
2022/05/21 14:18:40;;;;;;;3.42;1.98;;;;;;;;;;4163672;34;20127;-65
2022/05/21 14:21:21;;;;;;;3.50;1.80;;;;;;;;;;4168590;34;20107;-65
2022/05/21 14:23:48;;;;;;;2.00;1.67;;;;;;;;;;4176473;34;20442;-68
2022/05/21 14:26:17;;;;;;;3.08;1.85;;;;;;;;;;4163460;34;20594;-66
2022/05/21 14:28:44;;;;;;;2.78;1.83;;;;;;;;;;4156314;34;20167;-67
2022/05/21 14:31:34;;;;;;;1.95;1.65;;;;;;;;;;4157106;34;20563;-66
2022/05/21 14:34:06;;;;;;;2.47;1.92;;;;;;;;;;4169466;34;20258;-67
2022/05/21 14:36:45;;;;;;;2.58;2.05;;;;;;;;;;4151322;34;20113;-66
2022/05/21 14:40:56;;;;;;;4.20;2.30;;;;;;;;;;3856109;37;20258;-66
2022/05/21 14:43:41;;;;;;;2.47;2.12;;;;;;;;;;4419555;32;20109;-69
2022/05/21 14:47:51;;;;;;;2.22;2.03;;;;;;;;;;4419487;32;20105;-66
2022/05/21 14:48:54;;;;;;;7.20;2.37;;;;;;;;;;4419590;32;20129;-67
2022/05/21 14:54:05;;;;;;;4.25;1.98;;;;;;;;;;4418532;32;20178;-68
2022/05/21 14:56:33;;;;;;;2.00;1.83;;;;;;;;;;4415509;32;20121;-66
2022/05/21 14:59:00;;;;;;;1.83;1.62;;;;;;;;;;4414472;32;20201;-65
2022/05/21 15:01:28;;;;;;;4.07;2.50;;;;;;;;;;4410558;32;20086;-66
2022/05/21 15:03:56;;;;;;;3.25;1.95;;;;;;;;;;4396347;32;20144;-66
2022/05/21 15:06:31;;;;;;;2.35;1.70;;;;;;;;;;4404002;32;20113;-67
2022/05/21 15:08:59;;;;;;;4.50;1.80;;;;;;;;;;4390073;32;20512;-66
2022/05/21 15:11:26;;;;;;;2.37;2.17;;;;;;;;;;4402689;32;20205;-66
2022/05/21 15:13:52;;;;;;;3.42;2.25;;;;;;;;;;4403917;32;20502;-64
2022/05/21 15:16:19;;;;;;;2.70;1.92;;;;;;;;;;4402701;32;20100;-71
2022/05/21 15:18:45;;;;;;;2.65;2.30;;;;;;;;;;4402466;32;20170;-71
2022/05/21 15:21:29;;;;;;;4.40;2.08;;;;;;;;;;4389962;32;20186;-73
2022/05/21 15:23:58;;;;;;;3.40;2.30;;;;;;;;;;4380326;32;20100;-69
2022/05/21 15:26:25;;;;;;;5.45;2.95;;;;;;;;;;4417059;32;20185;-68
2022/05/21 15:28:52;;;;;;;3.28;2.30;;;;;;;;;;4417213;32;20092;-69
2022/05/21 15:31:19;;;;;;;2.95;1.92;;;;;;;;;;4418655;32;20477;-72
2022/05/21 15:33:45;;;;;;;2.97;2.05;;;;;;;;;;4411617;32;20208;-70
2022/05/21 15:36:12;;;;;;;3.62;2.58;;;;;;;;;;4386334;32;20128;-73
2022/05/21 15:38:39;;;;;;;2.42;2.00;;;;;;;;;;4405940;32;20209;-69
2022/05/21 15:41:10;;;;;;;3.67;2.60;;;;;;;;;;4396246;32;20116;-69
2022/05/21 15:43:36;;;;;;;4.50;2.45;;;;;;;;;;4406140;32;20190;-72
2022/05/21 15:46:03;;;;;;;4.40;2.12;;;;;;;;;;4410457;32;20109;-71
2022/05/21 15:48:29;;;;;;;2.35;1.98;;;;;;;;;;4410725;32;20121;-65
2022/05/21 15:50:55;;;;;;;3.87;1.98;;;;;;;;;;4405048;32;20093;-63
2022/05/21 15:53:22;;;;;;;2.12;1.92;;;;;;;;;;4400495;32;20097;-64
2022/05/21 15:55:48;;;;;;;3.55;1.90;;;;;;;;;;4395183;32;20200;-65
2022/05/21 15:58:15;;;;;;;3.03;2.25;;;;;;;;;;4395548;32;20561;-65
2022/05/21 16:00:44;;;;;;;3.72;2.28;;;;;;;;;;4400318;32;20148;-65
2022/05/21 16:03:10;;;;;;;4.30;2.53;;;;;;;;;;4387210;32;20090;-64
2022/05/21 16:05:37;;;;;;;4.55;2.92;;;;;;;;;;4399123;32;20203;-67
2022/05/21 16:08:03;;;;;;;4.60;3.08;;;;;;;;;;4400324;32;20105;-65
2022/05/21 16:10:30;;;;;;;4.30;2.65;;;;;;;;;;4400506;32;20125;-67
2022/05/21 16:12:57;;;;;;;5.97;2.60;;;;;;;;;;4397490;32;20089;-66